| time (UTC) | temp C | wind direction | speed KPH | gust KPH | rain 1hr cm | rain 24hr cm | rain mn cm | humidity % | barometer mb |
| 20260507131118 | 7 | 272 | 0.0 | 16.1 | 0.00 | 1.27 | 0.03 | 79 | 1011.8 |
| 20260507130628 | 7 | 344 | 8.0 | 16.1 | 0.00 | 1.27 | 0.03 | 76 | 1011.8 |
| 20260507130124 | 7 | 157 | 0.0 | 3.2 | 0.00 | 1.27 | 0.03 | 82 | 1011.8 |
| 20260507130026 | 7 | 328 | 0.0 | 3.2 | 0.00 | 1.27 | 0.03 | 82 | 1012.4 |
| 20260507125623 | 7 | 301 | 0.0 | 0.0 | 0.00 | 1.50 | 0.03 | 82 | 1011.8 |
| 20260507125142 | 7 | 348 | 0.0 | 0.0 | 0.00 | 1.50 | 0.03 | 85 | 1011.8 |
| 20260507124626 | 6 | 324 | 0.0 | 6.4 | 0.00 | 1.50 | 0.03 | 88 | 1011.9 |
| 20260507124527 | 6 | 324 | 0.0 | 6.4 | 0.00 | 1.50 | 0.03 | 88 | 1012.4 |
| 20260507124129 | 6 | 331 | 0.0 | 6.4 | 0.00 | 1.50 | 0.03 | 90 | 1011.8 |
| 20260507123615 | 6 | 335 | 0.0 | 0.0 | 0.00 | 1.50 | 0.03 | 92 | 1011.9 |
| 20260507123121 | 6 | 339 | 0.0 | 0.0 | 0.00 | 1.50 | 0.03 | 93 | 1011.8 |
| 20260507123034 | 5 | 339 | 0.0 | 0.0 | 0.00 | 1.50 | 0.03 | 93 | 1012.5 |
| 20260507122623 | 5 | 338 | 0.0 | 0.0 | 0.00 | 1.50 | 0.03 | 94 | 1011.9 |
| 20260507122123 | 5 | 338 | 0.0 | 0.0 | 0.00 | 1.50 | 0.03 | 94 | 1011.9 |
| 20260507121621 | 5 | 338 | 0.0 | 0.0 | 0.00 | 1.50 | 0.03 | 94 | 1011.9 |
| 20260507121517 | 5 | 338 | 0.0 | 0.0 | 0.00 | 1.50 | 0.03 | 94 | 1012.6 |
| 20260507121121 | 5 | 341 | 0.0 | 4.8 | 0.00 | 1.50 | 0.03 | 95 | 1011.9 |
| 20260507120621 | 5 | 341 | 0.0 | 4.8 | 0.00 | 1.50 | 0.03 | 95 | 1011.8 |
| 20260507120144 | 5 | 341 | 0.0 | 0.0 | 0.00 | 1.50 | 0.03 | 96 | 1011.7 |
| 20260507120045 | 5 | 341 | 0.0 | 0.0 | 0.00 | 1.50 | 0.03 | 96 | 1012.4 |
| 20260507115632 | 6 | 340 | 0.0 | 0.0 | 0.00 | 1.63 | 0.03 | 96 | 1011.7 |
| 20260507115129 | 6 | 340 | 0.0 | 0.0 | 0.00 | 1.63 | 0.03 | 96 | 1011.6 |
| 20260507114640 | 6 | 340 | 0.0 | 0.0 | 0.00 | 1.63 | 0.03 | 97 | 1011.5 |
| 20260507114510 | 5 | 340 | 0.0 | 0.0 | 0.00 | 1.63 | 0.03 | 97 | 1012.1 |
| 20260507114137 | 6 | 340 | 0.0 | 0.0 | 0.00 | 1.63 | 0.03 | 97 | 1011.3 |
| 20260507113655 | 6 | 340 | 0.0 | 0.0 | 0.00 | 1.63 | 0.03 | 97 | 1011.2 |
| 20260507113118 | 6 | 340 | 0.0 | 0.0 | 0.00 | 1.63 | 0.03 | 97 | 1011.3 |
| 20260507113052 | 5 | 340 | 0.0 | 0.0 | 0.00 | 1.63 | 0.03 | 97 | 1011.9 |
| 20260507112626 | 6 | 340 | 0.0 | 0.0 | 0.00 | 1.63 | 0.03 | 97 | 1011.3 |
| 20260507112152 | 6 | 340 | 0.0 | 0.0 | 0.00 | 1.63 | 0.03 | 97 | 1011.3 |
| 20260507111650 | 6 | 341 | 0.0 | 0.0 | 0.00 | 1.63 | 0.03 | 96 | 1011.4 |
| 20260507111550 | 6 | 341 | 0.0 | 0.0 | 0.00 | 1.63 | 0.03 | 96 | 1012.0 |
| 20260507111127 | 6 | 341 | 0.0 | 0.0 | 0.00 | 1.63 | 0.03 | 96 | 1011.3 |
| 20260507110631 | 6 | 341 | 0.0 | 0.0 | 0.00 | 1.63 | 0.03 | 96 | 1011.3 |
| 20260507110128 | 6 | 340 | 0.0 | 0.0 | 0.00 | 1.63 | 0.03 | 97 | 1011.3 |
| 20260507110023 | 5 | 340 | 0.0 | 0.0 | 0.00 | 1.63 | 0.03 | 97 | 1012.0 |
| 20260507105642 | 6 | 340 | 0.0 | 0.0 | 0.00 | 1.65 | 0.03 | 97 | 1011.4 |
| 20260507105135 | 6 | 340 | 0.0 | 0.0 | 0.00 | 1.65 | 0.03 | 96 | 1011.2 |
| 20260507104617 | 6 | 340 | 0.0 | 0.0 | 0.00 | 1.65 | 0.03 | 96 | 1011.2 |
| 20260507104552 | 5 | 340 | 0.0 | 0.0 | 0.00 | 1.65 | 0.03 | 96 | 1011.8 |
| 20260507104136 | 6 | 340 | 0.0 | 0.0 | 0.00 | 1.65 | 0.03 | 96 | 1011.2 |
| 20260507103614 | 6 | 340 | 0.0 | 0.0 | 0.00 | 1.65 | 0.03 | 96 | 1011.1 |
| 20260507103130 | 6 | 340 | 0.0 | 0.0 | 0.00 | 1.65 | 0.03 | 96 | 1010.9 |
| 20260507102632 | 5 | 340 | 0.0 | 0.0 | 0.00 | 1.65 | 0.03 | 97 | 1010.9 |
| 20260507102114 | 5 | 341 | 0.0 | 0.0 | 0.00 | 1.65 | 0.03 | 97 | 1010.9 |
| 20260507101612 | 5 | 341 | 0.0 | 0.0 | 0.00 | 1.65 | 0.03 | 97 | 1010.9 |
| 20260507101547 | 5 | 341 | 0.0 | 0.0 | 0.00 | 1.65 | 0.03 | 97 | 1011.5 |
| 20260507101125 | 5 | 341 | 0.0 | 0.0 | 0.00 | 1.65 | 0.03 | 97 | 1010.9 |
| 20260507100619 | 5 | 341 | 0.0 | 0.0 | 0.00 | 1.65 | 0.03 | 97 | 1010.9 |
| 20260507100135 | 5 | 341 | 0.0 | 0.0 | 0.00 | 1.65 | 0.03 | 97 | 1010.9 |
| 20260507100005 | 5 | 341 | 0.0 | 0.0 | 0.00 | 1.65 | 0.03 | 97 | 1011.5 |
| 20260507095615 | 5 | 341 | 0.0 | 0.0 | 0.00 | 1.80 | 0.03 | 96 | 1010.9 |
| 20260507095133 | 5 | 341 | 0.0 | 0.0 | 0.00 | 1.80 | 0.03 | 96 | 1010.9 |
| 20260507094548 | 5 | 341 | 0.0 | 0.0 | 0.00 | 1.80 | 0.03 | 96 | 1011.5 |
| 20260507094131 | 5 | 341 | 0.0 | 0.0 | 0.00 | 1.80 | 0.03 | 97 | 1010.9 |
| 20260507093629 | 5 | 341 | 0.0 | 0.0 | 0.00 | 1.80 | 0.03 | 97 | 1011.0 |
| 20260507093131 | 5 | 341 | 0.0 | 0.0 | 0.00 | 1.80 | 0.03 | 97 | 1010.8 |
| 20260507093031 | 5 | 341 | 0.0 | 0.0 | 0.00 | 1.80 | 0.03 | 97 | 1011.4 |
| 20260507092653 | 5 | 341 | 0.0 | 0.0 | 0.00 | 1.80 | 0.03 | 97 | 1010.7 |
| 20260507092133 | 5 | 341 | 0.0 | 0.0 | 0.00 | 1.80 | 0.03 | 97 | 1010.7 |
| 20260507091622 | 5 | 341 | 0.0 | 0.0 | 0.00 | 1.80 | 0.03 | 96 | 1010.9 |
| 20260507091132 | 5 | 341 | 0.0 | 0.0 | 0.00 | 1.80 | 0.03 | 96 | 1010.9 |
| 20260507090621 | 5 | 341 | 0.0 | 0.0 | 0.00 | 1.80 | 0.03 | 97 | 1010.9 |
| 20260507090113 | 5 | 341 | 0.0 | 0.0 | 0.00 | 1.80 | 0.03 | 97 | 1010.9 |
| 20260507090032 | 5 | 341 | 0.0 | 0.0 | 0.00 | 1.80 | 0.03 | 97 | 1011.5 |
| 20260507085617 | 5 | 341 | 0.0 | 0.0 | 0.00 | 1.93 | 0.03 | 96 | 1010.8 |
| 20260507085142 | 5 | 341 | 0.0 | 0.0 | 0.00 | 1.93 | 0.03 | 96 | 1010.9 |
| 20260507084621 | 5 | 341 | 0.0 | 0.0 | 0.00 | 1.93 | 0.03 | 96 | 1011.0 |
| 20260507084536 | 5 | 341 | 0.0 | 0.0 | 0.00 | 1.93 | 0.03 | 96 | 1011.6 |
| 20260507084122 | 5 | 341 | 0.0 | 0.0 | 0.00 | 1.93 | 0.03 | 96 | 1011.0 |
| 20260507083614 | 5 | 341 | 0.0 | 0.0 | 0.00 | 1.93 | 0.03 | 96 | 1011.1 |
| 20260507083134 | 5 | 341 | 0.0 | 0.0 | 0.00 | 1.93 | 0.03 | 96 | 1011.0 |
| 20260507083026 | 5 | 341 | 0.0 | 0.0 | 0.00 | 1.93 | 0.03 | 96 | 1011.7 |
| 20260507082616 | 5 | 341 | 0.0 | 0.0 | 0.00 | 1.93 | 0.03 | 96 | 1011.2 |
| 20260507081618 | 5 | 341 | 0.0 | 0.0 | 0.00 | 1.93 | 0.03 | 96 | 1011.2 |
| 20260507081516 | 5 | 341 | 0.0 | 0.0 | 0.00 | 1.93 | 0.03 | 96 | 1011.8 |
| 20260507081121 | 5 | 341 | 0.0 | 0.0 | 0.00 | 1.93 | 0.03 | 96 | 1011.2 |
| 20260507080617 | 5 | 341 | 0.0 | 0.0 | 0.00 | 1.93 | 0.03 | 97 | 1011.2 |
| 20260507080138 | 5 | 341 | 0.0 | 0.0 | 0.00 | 1.93 | 0.03 | 97 | 1011.3 |
| 20260507080008 | 5 | 341 | 0.0 | 0.0 | 0.00 | 1.93 | 0.03 | 97 | 1011.9 |
| 20260507075650 | 5 | 341 | 0.0 | 0.0 | 0.00 | 2.01 | 0.03 | 97 | 1011.2 |
| 20260507075132 | 5 | 341 | 0.0 | 0.0 | 0.00 | 2.01 | 0.03 | 97 | 1011.3 |
| 20260507074547 | 5 | 341 | 0.0 | 0.0 | 0.00 | 2.01 | 0.03 | 97 | 1011.9 |
| 20260507074124 | 5 | 341 | 0.0 | 0.0 | 0.00 | 2.01 | 0.03 | 97 | 1011.2 |
| 20260507073629 | 5 | 341 | 0.0 | 0.0 | 0.00 | 2.01 | 0.03 | 97 | 1011.4 |
| 20260507073120 | 5 | 341 | 0.0 | 0.0 | 0.00 | 2.01 | 0.03 | 97 | 1011.5 |
| 20260507073043 | 5 | 341 | 0.0 | 0.0 | 0.00 | 2.01 | 0.03 | 97 | 1012.1 |
| 20260507072640 | 5 | 341 | 0.0 | 0.0 | 0.00 | 2.01 | 0.03 | 97 | 1011.4 |
| 20260507072131 | 5 | 341 | 0.0 | 0.0 | 0.00 | 2.01 | 0.03 | 96 | 1011.4 |
| 20260507071615 | 5 | 341 | 0.0 | 0.0 | 0.00 | 2.01 | 0.03 | 96 | 1011.3 |
| 20260507071547 | 5 | 341 | 0.0 | 0.0 | 0.00 | 2.01 | 0.03 | 96 | 1011.9 |
| 20260507071106 | 5 | 341 | 0.0 | 0.0 | 0.00 | 2.01 | 0.03 | 97 | 1011.2 |
| 20260507070619 | 5 | 341 | 0.0 | 0.0 | 0.00 | 2.01 | 0.03 | 97 | 1011.2 |
| 20260507070125 | 5 | 341 | 0.0 | 0.0 | 0.00 | 2.01 | 0.03 | 97 | 1011.1 |
| 20260507070018 | 5 | 341 | 0.0 | 0.0 | 0.00 | 2.01 | 0.03 | 97 | 1011.7 |
| 20260507065638 | 5 | 341 | 0.0 | 0.0 | 0.00 | 2.01 | 0.03 | 97 | 1011.1 |
| 20260507065134 | 5 | 341 | 0.0 | 0.0 | 0.00 | 2.01 | 0.03 | 97 | 1011.0 |
| 20260507064624 | 5 | 341 | 0.0 | 0.0 | 0.00 | 2.01 | 0.03 | 97 | 1010.9 |
| 20260507064511 | 5 | 341 | 0.0 | 0.0 | 0.00 | 2.01 | 0.03 | 97 | 1011.4 |
| 20260507064138 | 5 | 341 | 0.0 | 0.0 | 0.00 | 2.01 | 0.03 | 97 | 1010.8 |
| 20260507063613 | 5 | 341 | 0.0 | 0.0 | 0.00 | 2.01 | 0.03 | 97 | 1010.8 |
| 20260507063133 | 5 | 341 | 0.0 | 0.0 | 0.00 | 2.01 | 0.03 | 97 | 1010.7 |
| 20260507063035 | 5 | 341 | 0.0 | 0.0 | 0.00 | 2.01 | 0.03 | 97 | 1011.2 |
| 20260507062616 | 5 | 341 | 0.0 | 0.0 | 0.00 | 2.01 | 0.03 | 97 | 1010.8 |
| 20260507062125 | 5 | 341 | 0.0 | 0.0 | 0.00 | 2.01 | 0.03 | 97 | 1010.8 |
| 20260507061641 | 5 | 341 | 0.0 | 0.0 | 0.00 | 2.01 | 0.03 | 97 | 1010.9 |
| 20260507061538 | 5 | 341 | 0.0 | 0.0 | 0.00 | 2.01 | 0.03 | 97 | 1011.4 |
| 20260507061117 | 5 | 341 | 0.0 | 0.0 | 0.00 | 2.01 | 0.03 | 97 | 1010.9 |
| 20260507060644 | 5 | 341 | 0.0 | 0.0 | 0.00 | 2.01 | 0.03 | 97 | 1011.0 |
| 20260507060131 | 5 | 341 | 0.0 | 0.0 | 0.00 | 2.01 | 0.03 | 97 | 1011.2 |
| 20260507060105 | 5 | 341 | 0.0 | 0.0 | 0.00 | 2.01 | 0.03 | 97 | 1011.7 |
| 20260507055629 | 5 | 341 | 0.0 | 0.0 | 0.00 | 2.13 | 0.03 | 97 | 1011.3 |
| 20260507055140 | 5 | 341 | 0.0 | 0.0 | 0.00 | 2.13 | 0.03 | 97 | 1011.3 |
| 20260507054628 | 5 | 341 | 0.0 | 0.0 | 0.00 | 2.13 | 0.03 | 97 | 1011.4 |
| 20260507054516 | 5 | 341 | 0.0 | 0.0 | 0.00 | 2.13 | 0.03 | 97 | 1011.9 |
| 20260507054141 | 5 | 341 | 0.0 | 0.0 | 0.00 | 2.13 | 0.03 | 97 | 1011.3 |
| 20260507053632 | 5 | 341 | 0.0 | 0.0 | 0.00 | 2.13 | 0.03 | 96 | 1011.4 |
| 20260507053112 | 5 | 341 | 0.0 | 0.0 | 0.00 | 2.13 | 0.03 | 97 | 1011.3 |
| 20260507053051 | 5 | 341 | 0.0 | 0.0 | 0.00 | 2.13 | 0.03 | 97 | 1011.8 |
| 20260507052711 | 5 | 341 | 0.0 | 0.0 | 0.00 | 2.13 | 0.03 | 97 | 1011.3 |
| 20260507052211 | 5 | 341 | 0.0 | 0.0 | 0.00 | 2.13 | 0.03 | 97 | 1011.4 |
| 20260507051709 | 5 | 341 | 0.0 | 0.0 | 0.00 | 2.13 | 0.03 | 97 | 1011.6 |
| 20260507051558 | 5 | 341 | 0.0 | 0.0 | 0.00 | 2.13 | 0.03 | 97 | 1012.1 |
| 20260507051211 | 5 | 341 | 0.0 | 0.0 | 0.00 | 2.13 | 0.03 | 96 | 1011.5 |
| 20260507050708 | 5 | 341 | 0.0 | 0.0 | 0.03 | 2.13 | 0.03 | 96 | 1011.6 |
| 20260507050219 | 5 | 341 | 0.0 | 0.0 | 0.03 | 2.13 | 0.03 | 96 | 1011.7 |
| 20260507050033 | 5 | 341 | 0.0 | 0.0 | 0.03 | 2.13 | 0.03 | 96 | 1012.2 |
| 20260507045703 | 5 | 341 | 0.0 | 0.0 | 0.03 | 2.31 | 0.03 | 96 | 1011.7 |
| 20260507045210 | 5 | 341 | 0.0 | 0.0 | 0.03 | 2.31 | 0.03 | 96 | 1011.8 |
| 20260507044708 | 5 | 341 | 0.0 | 0.0 | 0.03 | 2.31 | 0.03 | 96 | 1011.9 |
| 20260507044523 | 5 | 341 | 0.0 | 0.0 | 0.03 | 2.31 | 0.03 | 96 | 1012.3 |
| 20260507044157 | 5 | 341 | 0.0 | 0.0 | 0.03 | 2.31 | 0.03 | 96 | 1012.0 |
| 20260507043704 | 5 | 341 | 0.0 | 0.0 | 0.03 | 2.31 | 0.03 | 96 | 1011.9 |
| 20260507043200 | 5 | 341 | 0.0 | 0.0 | 0.03 | 2.31 | 0.03 | 96 | 1011.9 |
| 20260507043020 | 5 | 341 | 0.0 | 0.0 | 0.03 | 2.31 | 0.03 | 96 | 1012.3 |
| 20260507042701 | 5 | 341 | 0.0 | 0.0 | 0.03 | 2.31 | 0.03 | 96 | 1011.9 |
| 20260507042156 | 5 | 341 | 0.0 | 0.0 | 0.03 | 2.31 | 0.03 | 96 | 1011.8 |
| 20260507041705 | 5 | 341 | 0.0 | 0.0 | 0.03 | 2.31 | 0.03 | 96 | 1011.9 |
| 20260507041532 | 5 | 341 | 0.0 | 0.0 | 0.03 | 2.31 | 0.03 | 96 | 1012.2 |
| 20260507041205 | 5 | 341 | 0.0 | 0.0 | 0.03 | 2.31 | 0.03 | 96 | 1011.8 |
| 20260507040710 | 6 | 341 | 0.0 | 0.0 | 0.00 | 2.29 | 0.00 | 96 | 1011.8 |
| 20260507040210 | 6 | 341 | 0.0 | 0.0 | 0.00 | 2.29 | 0.00 | 96 | 1011.9 |
| 20260507040031 | 5 | 341 | 0.0 | 0.0 | 0.00 | 2.29 | 0.00 | 96 | 1012.3 |
| 20260507035713 | 6 | 341 | 0.0 | 0.0 | 0.00 | 2.49 | 2.29 | 97 | 1011.9 |
| 20260507035157 | 6 | 341 | 0.0 | 0.0 | 0.00 | 2.49 | 2.29 | 96 | 1011.8 |
| 20260507034700 | 6 | 341 | 0.0 | 0.0 | 0.00 | 2.49 | 2.29 | 96 | 1011.9 |
| 20260507034538 | 6 | 341 | 0.0 | 0.0 | 0.00 | 2.49 | 2.29 | 96 | 1012.3 |
| 20260507034159 | 6 | 341 | 0.0 | 0.0 | 0.00 | 2.49 | 2.29 | 96 | 1011.9 |
| 20260507033655 | 6 | 341 | 0.0 | 0.0 | 0.00 | 2.49 | 2.29 | 96 | 1011.9 |
| 20260507033155 | 6 | 341 | 0.0 | 0.0 | 0.00 | 2.49 | 2.29 | 96 | 1011.9 |
| 20260507033034 | 6 | 341 | 0.0 | 0.0 | 0.00 | 2.49 | 2.29 | 96 | 1012.3 |
| 20260507032658 | 6 | 341 | 0.0 | 0.0 | 0.00 | 2.49 | 2.29 | 96 | 1012.0 |
| 20260507032206 | 6 | 341 | 0.0 | 0.0 | 0.00 | 2.49 | 2.29 | 96 | 1012.0 |
| 20260507031659 | 6 | 341 | 0.0 | 0.0 | 0.00 | 2.49 | 2.29 | 96 | 1012.0 |
| 20260507031539 | 6 | 341 | 0.0 | 0.0 | 0.00 | 2.49 | 2.29 | 96 | 1012.4 |
| 20260507031206 | 6 | 341 | 0.0 | 0.0 | 0.00 | 2.49 | 2.29 | 96 | 1012.1 |
| 20260507030712 | 6 | 341 | 0.0 | 0.0 | 0.00 | 2.49 | 2.29 | 96 | 1012.1 |
| 20260507030206 | 6 | 341 | 0.0 | 0.0 | 0.00 | 2.49 | 2.29 | 96 | 1012.1 |
| 20260507030020 | 6 | 341 | 0.0 | 0.0 | 0.00 | 2.49 | 2.29 | 96 | 1012.5 |
| 20260507025706 | 6 | 341 | 0.0 | 0.0 | 0.00 | 2.49 | 2.29 | 96 | 1012.2 |
| 20260507025230 | 6 | 341 | 0.0 | 0.0 | 0.00 | 2.49 | 2.29 | 96 | 1012.0 |
| 20260507024657 | 6 | 341 | 0.0 | 0.0 | 0.00 | 2.49 | 2.29 | 96 | 1012.0 |
| 20260507024510 | 6 | 341 | 0.0 | 0.0 | 0.00 | 2.49 | 2.29 | 96 | 1012.5 |
| 20260507023659 | 6 | 341 | 0.0 | 0.0 | 0.00 | 2.49 | 2.29 | 96 | 1012.1 |
| 20260507023156 | 6 | 341 | 0.0 | 0.0 | 0.00 | 2.49 | 2.29 | 96 | 1012.0 |
| 20260507023015 | 6 | 341 | 0.0 | 0.0 | 0.00 | 2.49 | 2.29 | 96 | 1012.5 |
| 20260507022720 | 6 | 341 | 0.0 | 0.0 | 0.00 | 2.49 | 2.29 | 96 | 1012.0 |
| 20260507022154 | 6 | 341 | 0.0 | 0.0 | 0.00 | 2.49 | 2.29 | 96 | 1012.1 |
| 20260507021706 | 6 | 341 | 0.0 | 0.0 | 0.00 | 2.49 | 2.29 | 96 | 1012.1 |
| 20260507021534 | 6 | 341 | 0.0 | 0.0 | 0.00 | 2.49 | 2.29 | 96 | 1012.4 |
| 20260507021121 | 6 | 341 | 0.0 | 0.0 | 0.00 | 2.49 | 2.29 | 96 | 1012.1 |
| 20260507020624 | 6 | 341 | 0.0 | 0.0 | 0.00 | 2.49 | 2.29 | 96 | 1012.0 |
| 20260507020119 | 6 | 341 | 0.0 | 0.0 | 0.00 | 2.49 | 2.29 | 96 | 1012.0 |
| 20260507020027 | 6 | 341 | 0.0 | 0.0 | 0.00 | 2.49 | 2.29 | 96 | 1012.3 |
| 20260507015636 | 6 | 341 | 0.0 | 0.0 | 0.00 | 2.49 | 2.29 | 96 | 1012.0 |
| 20260507015126 | 6 | 341 | 0.0 | 0.0 | 0.00 | 2.49 | 2.29 | 96 | 1012.2 |
| 20260507014623 | 6 | 341 | 0.0 | 0.0 | 0.03 | 2.49 | 2.29 | 96 | 1012.2 |
| 20260507014534 | 6 | 341 | 0.0 | 0.0 | 0.03 | 2.49 | 2.29 | 96 | 1012.6 |
| 20260507014157 | 6 | 341 | 0.0 | 0.0 | 0.03 | 2.49 | 2.29 | 96 | 1012.3 |
| 20260507013634 | 6 | 341 | 0.0 | 0.0 | 0.05 | 2.49 | 2.29 | 96 | 1012.3 |
| 20260507013119 | 6 | 341 | 0.0 | 0.0 | 0.05 | 2.49 | 2.29 | 96 | 1012.2 |
| 20260507013043 | 6 | 341 | 0.0 | 0.0 | 0.05 | 2.49 | 2.29 | 96 | 1012.5 |
| 20260507012628 | 6 | 341 | 0.0 | 0.0 | 0.05 | 2.49 | 2.29 | 96 | 1012.2 |
| 20260507012132 | 6 | 341 | 0.0 | 0.0 | 0.08 | 2.49 | 2.29 | 96 | 1012.2 |
| 20260507011628 | 6 | 341 | 0.0 | 0.0 | 0.08 | 2.49 | 2.29 | 96 | 1012.2 |
| 20260507011525 | 6 | 341 | 0.0 | 0.0 | 0.08 | 2.49 | 2.29 | 96 | 1012.5 |
| 20260507011115 | 6 | 341 | 0.0 | 0.0 | 0.10 | 2.49 | 2.29 | 96 | 1012.2 |
| 20260507010646 | 6 | 341 | 0.0 | 0.0 | 0.10 | 2.49 | 2.29 | 96 | 1012.3 |
| 20260507010131 | 6 | 341 | 0.0 | 0.0 | 0.13 | 2.49 | 2.29 | 96 | 1012.2 |
| 20260507005629 | 6 | 341 | 0.0 | 0.0 | 0.13 | 2.49 | 2.29 | 96 | 1012.1 |
| 20260507005124 | 6 | 341 | 0.0 | 0.0 | 0.13 | 2.49 | 2.29 | 96 | 1012.1 |
| 20260507004615 | 6 | 341 | 0.0 | 0.0 | 0.10 | 2.46 | 2.26 | 96 | 1011.9 |
| 20260507004530 | 6 | 341 | 0.0 | 0.0 | 0.10 | 2.46 | 2.26 | 96 | 1012.3 |
| 20260507004122 | 6 | 341 | 0.0 | 0.0 | 0.10 | 2.46 | 2.26 | 96 | 1011.9 |
| 20260507003632 | 6 | 341 | 0.0 | 0.0 | 0.08 | 2.44 | 2.24 | 96 | 1011.9 |
| 20260507003115 | 6 | 341 | 0.0 | 0.0 | 0.10 | 2.44 | 2.24 | 96 | 1011.8 |
| 20260507003007 | 6 | 341 | 0.0 | 0.0 | 0.10 | 2.44 | 2.24 | 96 | 1012.1 |
| 20260507002628 | 6 | 341 | 0.0 | 0.0 | 0.10 | 2.44 | 2.24 | 96 | 1011.8 |
| 20260507002129 | 6 | 341 | 0.0 | 0.0 | 0.08 | 2.41 | 2.21 | 96 | 1011.7 |
| 20260507001632 | 6 | 341 | 0.0 | 0.0 | 0.08 | 2.41 | 2.21 | 96 | 1011.5 |
| 20260507001601 | 6 | 341 | 0.0 | 0.0 | 0.08 | 2.41 | 2.21 | 96 | 1011.8 |
| 20260507001206 | 6 | 341 | 0.0 | 0.0 | 0.05 | 2.39 | 2.18 | 96 | 1011.5 |
| 20260507000701 | 6 | 341 | 0.0 | 0.0 | 0.05 | 2.39 | 2.18 | 96 | 1011.4 |
| 20260506235714 | 6 | 342 | 0.0 | 0.0 | 0.03 | 2.36 | 2.16 | 96 | 1011.3 |
| 20260506235241 | 6 | 342 | 0.0 | 0.0 | 0.03 | 2.36 | 2.16 | 96 | 1011.2 |
| 20260506234710 | 6 | 342 | 0.0 | 0.0 | 0.03 | 2.36 | 2.16 | 96 | 1011.0 |
| 20260506234246 | 6 | 342 | 0.0 | 0.0 | 0.03 | 2.36 | 2.16 | 96 | 1010.7 |
| 20260506233714 | 6 | 342 | 0.0 | 0.0 | 0.03 | 2.36 | 2.16 | 96 | 1010.8 |
| 20260506232711 | 6 | 342 | 0.0 | 0.0 | 0.00 | 2.34 | 2.13 | 96 | 1010.8 |
| 20260506232222 | 6 | 342 | 0.0 | 0.0 | 0.00 | 2.34 | 2.13 | 96 | 1010.9 |
| 20260506231710 | 6 | 342 | 0.0 | 0.0 | 0.00 | 2.34 | 2.13 | 96 | 1010.7 |
| 20260506231203 | 6 | 342 | 0.0 | 0.0 | 0.00 | 2.34 | 2.13 | 96 | 1010.6 |
| 20260506230655 | 6 | 342 | 0.0 | 0.0 | 0.00 | 2.34 | 2.13 | 96 | 1010.7 |
| 20260506225700 | 6 | 342 | 0.0 | 0.0 | 0.03 | 2.34 | 2.13 | 96 | 1010.8 |
| 20260506225203 | 6 | 342 | 0.0 | 0.0 | 0.03 | 2.34 | 2.13 | 96 | 1010.7 |
| 20260506224723 | 6 | 342 | 0.0 | 0.0 | 0.03 | 2.34 | 2.13 | 96 | 1010.8 |
| 20260506224223 | 6 | 342 | 0.0 | 3.2 | 0.03 | 2.34 | 2.13 | 96 | 1010.8 |
| 20260506223738 | 6 | 342 | 0.0 | 3.2 | 0.03 | 2.34 | 2.13 | 96 | 1010.9 |
| 20260506222730 | 6 | 342 | 0.0 | 3.2 | 0.03 | 2.34 | 2.13 | 96 | 1010.8 |
| 20260506222205 | 6 | 338 | 0.0 | 1.6 | 0.03 | 2.34 | 2.13 | 96 | 1010.8 |
| 20260506221734 | 6 | 337 | 0.0 | 0.0 | 0.03 | 2.34 | 2.13 | 96 | 1010.7 |
| 20260506221211 | 6 | 337 | 0.0 | 4.8 | 0.03 | 2.34 | 2.13 | 96 | 1011.0 |
| 20260506220709 | 6 | 337 | 0.0 | 4.8 | 0.03 | 2.34 | 2.13 | 96 | 1011.0 |
| 20260506215659 | 6 | 349 | 0.0 | 6.4 | 0.03 | 2.31 | 2.11 | 96 | 1010.8 |
| 20260506215220 | 6 | 334 | 0.0 | 4.8 | 0.03 | 2.31 | 2.11 | 96 | 1010.8 |
| 20260506214706 | 6 | 333 | 0.0 | 4.8 | 0.05 | 2.31 | 2.11 | 96 | 1010.8 |
| 20260506214216 | 6 | 341 | 0.0 | 0.0 | 0.08 | 2.31 | 2.11 | 96 | 1010.7 |
| 20260506213722 | 6 | 341 | 0.0 | 3.2 | 0.08 | 2.31 | 2.11 | 96 | 1010.7 |
| 20260506212715 | 6 | 342 | 0.0 | 3.2 | 0.10 | 2.31 | 2.11 | 96 | 1010.6 |
| 20260506212214 | 7 | 357 | 0.0 | 0.0 | 0.10 | 2.31 | 2.11 | 96 | 1010.5 |
| 20260506211714 | 7 | 357 | 0.0 | 0.0 | 0.13 | 2.31 | 2.11 | 96 | 1010.4 |
| 20260506211157 | 7 | 14 | 0.0 | 3.2 | 0.13 | 2.31 | 2.11 | 96 | 1010.3 |
| 20260506210702 | 6 | 13 | 0.0 | 3.2 | 0.13 | 2.31 | 2.11 | 96 | 1010.3 |
| 20260506205757 | 6 | 14 | 0.0 | 6.4 | 0.10 | 2.41 | 2.08 | 96 | 1010.4 |
| 20260506205217 | 6 | 337 | 0.0 | 0.0 | 0.10 | 2.41 | 2.08 | 96 | 1010.6 |
| 20260506204722 | 7 | 336 | 0.0 | 0.0 | 0.08 | 2.39 | 2.06 | 96 | 1010.6 |
| 20260506204228 | 7 | 336 | 0.0 | 0.0 | 0.05 | 2.36 | 2.03 | 96 | 1010.6 |
| 20260506203712 | 7 | 335 | 0.0 | 0.0 | 0.05 | 2.36 | 2.03 | 96 | 1010.6 |
| 20260506202729 | 7 | 289 | 0.0 | 0.0 | 0.05 | 2.34 | 2.01 | 96 | 1010.5 |
| 20260506202226 | 7 | 350 | 0.0 | 0.0 | 0.05 | 2.34 | 2.01 | 96 | 1010.5 |
| 20260506201707 | 7 | 350 | 0.0 | 0.0 | 0.03 | 2.31 | 1.98 | 96 | 1010.5 |
| 20260506201154 | 7 | 350 | 0.0 | 0.0 | 0.05 | 2.31 | 1.98 | 96 | 1010.5 |
| 20260506200736 | 7 | 350 | 0.0 | 0.0 | 0.05 | 2.31 | 1.98 | 96 | 1010.5 |
| 20260506195733 | 7 | 350 | 0.0 | 0.0 | 0.08 | 2.51 | 1.98 | 96 | 1010.3 |
| 20260506195159 | 7 | 350 | 0.0 | 0.0 | 0.08 | 2.51 | 1.98 | 96 | 1010.2 |
| 20260506194700 | 7 | 350 | 0.0 | 0.0 | 0.08 | 2.51 | 1.98 | 96 | 1010.2 |
| 20260506194200 | 7 | 350 | 0.0 | 0.0 | 0.08 | 2.51 | 1.98 | 96 | 1010.3 |
| 20260506193705 | 6 | 350 | 0.0 | 0.0 | 0.08 | 2.51 | 1.98 | 96 | 1010.3 |
| 20260506192706 | 6 | 350 | 0.0 | 0.0 | 0.08 | 2.49 | 1.96 | 96 | 1010.2 |
| 20260506192233 | 6 | 350 | 0.0 | 0.0 | 0.08 | 2.49 | 1.96 | 96 | 1010.1 |
| 20260506191707 | 6 | 349 | 0.0 | 0.0 | 0.08 | 2.49 | 1.96 | 96 | 1010.1 |
| 20260506191159 | 6 | 349 | 0.0 | 0.0 | 0.05 | 2.46 | 1.93 | 96 | 1010.1 |
| 20260506190709 | 6 | 347 | 0.0 | 0.0 | 0.05 | 2.46 | 1.93 | 96 | 1010.1 |
| 20260506185725 | 6 | 347 | 0.0 | 0.0 | 0.05 | 2.54 | 1.91 | 96 | 1010.3 |
| 20260506185213 | 6 | 347 | 0.0 | 0.0 | 0.05 | 2.54 | 1.91 | 96 | 1010.4 |
| 20260506184707 | 6 | 347 | 0.0 | 0.0 | 0.05 | 2.54 | 1.91 | 96 | 1010.5 |
| 20260506184226 | 6 | 347 | 0.0 | 0.0 | 0.08 | 2.54 | 1.91 | 96 | 1010.5 |
| 20260506183654 | 6 | 344 | 0.0 | 0.0 | 0.10 | 2.54 | 1.91 | 96 | 1010.5 |
| 20260506182717 | 6 | 343 | 0.0 | 0.0 | 0.10 | 2.51 | 1.88 | 96 | 1010.7 |
| 20260506182251 | 6 | 343 | 0.0 | 0.0 | 0.13 | 2.51 | 1.88 | 96 | 1010.7 |
| 20260506181721 | 6 | 342 | 0.0 | 0.0 | 0.13 | 2.51 | 1.88 | 96 | 1010.6 |
| 20260506181205 | 6 | 338 | 0.0 | 0.0 | 0.15 | 2.51 | 1.88 | 96 | 1010.9 |
| 20260506180725 | 6 | 338 | 0.0 | 0.0 | 0.15 | 2.51 | 1.88 | 96 | 1010.9 |
| 20260506175735 | 6 | 338 | 0.0 | 0.0 | 0.15 | 2.49 | 1.85 | 96 | 1011.0 |
| 20260506175218 | 6 | 338 | 0.0 | 0.0 | 0.15 | 2.49 | 1.85 | 96 | 1011.1 |
| 20260506174705 | 6 | 339 | 0.0 | 0.0 | 0.15 | 2.49 | 1.85 | 96 | 1011.1 |
| 20260506174158 | 6 | 339 | 0.0 | 0.0 | 0.15 | 2.46 | 1.83 | 96 | 1011.2 |
| 20260506173727 | 6 | 339 | 0.0 | 0.0 | 0.15 | 2.44 | 1.80 | 96 | 1011.1 |
| 20260506172708 | 6 | 338 | 0.0 | 0.0 | 0.15 | 2.41 | 1.78 | 96 | 1011.2 |
| 20260506172154 | 6 | 338 | 0.0 | 0.0 | 0.15 | 2.39 | 1.75 | 96 | 1011.1 |
| 20260506171754 | 6 | 337 | 0.0 | 0.0 | 0.18 | 2.39 | 1.75 | 96 | 1011.3 |
| 20260506171203 | 6 | 337 | 0.0 | 8.0 | 0.15 | 2.36 | 1.73 | 96 | 1011.2 |
| 20260506170705 | 6 | 330 | 0.0 | 8.0 | 0.18 | 2.36 | 1.73 | 96 | 1011.1 |
| 20260506165653 | 6 | 346 | 0.0 | 0.0 | 0.18 | 2.34 | 1.70 | 96 | 1011.2 |
| 20260506165236 | 6 | 346 | 0.0 | 0.0 | 0.20 | 2.34 | 1.70 | 96 | 1011.3 |
| 20260506164706 | 6 | 346 | 0.0 | 0.0 | 0.23 | 2.34 | 1.70 | 96 | 1011.3 |
| 20260506164224 | 6 | 346 | 0.0 | 0.0 | 0.23 | 2.31 | 1.68 | 96 | 1011.3 |
| 20260506163713 | 6 | 346 | 0.0 | 4.8 | 0.23 | 2.29 | 1.65 | 96 | 1011.3 |
| 20260506162733 | 6 | 344 | 0.0 | 3.2 | 0.23 | 2.26 | 1.63 | 96 | 1011.4 |
| 20260506162201 | 6 | 344 | 0.0 | 3.2 | 0.23 | 2.24 | 1.60 | 96 | 1011.4 |
| 20260506161751 | 6 | 344 | 0.0 | 0.0 | 0.20 | 2.21 | 1.57 | 96 | 1011.6 |
| 20260506161200 | 6 | 344 | 0.0 | 0.0 | 0.23 | 2.21 | 1.57 | 96 | 1011.6 |
| 20260506160702 | 6 | 344 | 0.0 | 0.0 | 0.20 | 2.18 | 1.55 | 96 | 1011.7 |
| 20260506155655 | 6 | 343 | 0.0 | 4.8 | 0.20 | 2.13 | 1.50 | 96 | 1011.7 |
| 20260506155212 | 6 | 343 | 0.0 | 4.8 | 0.20 | 2.13 | 1.50 | 96 | 1011.8 |
| 20260506154725 | 6 | 356 | 0.0 | 0.0 | 0.20 | 2.11 | 1.47 | 96 | 1012.0 |
| 20260506154231 | 6 | 358 | 0.0 | 0.0 | 0.20 | 2.08 | 1.45 | 96 | 1011.9 |
| 20260506153649 | 6 | 13 | 0.0 | 0.0 | 0.18 | 2.06 | 1.42 | 96 | 1011.8 |
| 20260506152718 | 6 | 17 | 1.6 | 11.3 | 0.18 | 2.03 | 1.40 | 96 | 1011.9 |
| 20260506151744 | 6 | 356 | 1.6 | 8.0 | 0.18 | 2.01 | 1.37 | 96 | 1011.6 |
| 20260506151207 | 6 | 351 | 0.0 | 4.8 | 0.18 | 1.98 | 1.35 | 96 | 1011.6 |
| 20260506150710 | 6 | 356 | 0.0 | 1.6 | 0.18 | 1.98 | 1.35 | 96 | 1011.6 |
| 20260506145721 | 6 | 357 | 0.0 | 0.0 | 0.15 | 1.93 | 1.30 | 96 | 1011.4 |
| 20260506145208 | 6 | 357 | 0.0 | 1.6 | 0.18 | 1.93 | 1.30 | 96 | 1011.4 |
| 20260506144735 | 6 | 357 | 0.0 | 3.2 | 0.15 | 1.91 | 1.27 | 96 | 1011.4 |
| 20260506144210 | 6 | 357 | 0.0 | 4.8 | 0.15 | 1.88 | 1.24 | 96 | 1011.4 |
| 20260506143659 | 6 | 356 | 0.0 | 4.8 | 0.15 | 1.88 | 1.24 | 96 | 1011.4 |
| 20260506142719 | 6 | 351 | 0.0 | 0.0 | 0.15 | 1.85 | 1.22 | 96 | 1011.5 |
| 20260506142204 | 6 | 350 | 0.0 | 0.0 | 0.13 | 1.83 | 1.19 | 96 | 1011.6 |
| 20260506141700 | 6 | 350 | 0.0 | 9.7 | 0.13 | 1.83 | 1.19 | 96 | 1011.7 |
| 20260506141544 | 6 | 350 | 0.0 | 9.7 | 0.13 | 1.83 | 1.19 | 96 | 1011.4 |
| 20260506141118 | 6 | 350 | 0.0 | 9.7 | 0.10 | 1.80 | 1.17 | 96 | 1011.8 |
| 20260506140621 | 6 | 351 | 0.0 | 1.6 | 0.10 | 1.80 | 1.17 | 96 | 1011.6 |
| 20260506140124 | 6 | 351 | 0.0 | 9.7 | 0.10 | 1.78 | 1.14 | 96 | 1011.5 |
| 20260506140033 | 6 | 351 | 0.0 | 9.7 | 0.10 | 1.78 | 1.14 | 96 | 1011.2 |
| 20260506135643 | 6 | 351 | 0.0 | 9.7 | 0.08 | 1.75 | 1.12 | 96 | 1011.7 |
| 20260506135118 | 6 | 357 | 0.0 | 4.8 | 0.08 | 1.75 | 1.12 | 96 | 1011.6 |
| 20260506134615 | 6 | 358 | 0.0 | 4.8 | 0.10 | 1.75 | 1.12 | 96 | 1011.4 |
| 20260506134547 | 6 | 358 | 0.0 | 4.8 | 0.10 | 1.75 | 1.12 | 96 | 1011.1 |
| 20260506134119 | 6 | 357 | 0.0 | 0.0 | 0.10 | 1.73 | 1.09 | 96 | 1011.3 |
| 20260506133634 | 7 | 351 | 0.0 | 0.0 | 0.15 | 1.73 | 1.09 | 96 | 1011.4 |
| 20260506133133 | 7 | 344 | 0.0 | 0.0 | 0.18 | 1.70 | 1.07 | 96 | 1011.5 |
| 20260506133038 | 7 | 344 | 0.0 | 0.0 | 0.18 | 1.70 | 1.07 | 96 | 1011.2 |
| 20260506132651 | 7 | 344 | 0.0 | 0.0 | 0.18 | 1.70 | 1.07 | 96 | 1011.6 |
| 20260506132119 | 7 | 344 | 0.0 | 6.4 | 0.18 | 1.70 | 1.07 | 96 | 1011.6 |
| 20260506131626 | 7 | 344 | 0.0 | 6.4 | 0.20 | 1.70 | 1.07 | 96 | 1011.7 |
| 20260506131533 | 7 | 344 | 0.0 | 6.4 | 0.20 | 1.70 | 1.07 | 96 | 1011.2 |